sensor_id;sensor_type;location;lat;lon;timestamp;P1;durP1;ratioP1;P2;durP2;ratioP2
1402;SDS011;696;48.546;9.896;2024-01-27T00:01:01;0.40;;;0.40;;
1402;SDS011;696;48.546;9.896;2024-01-27T00:03:27;0.47;;;0.47;;
1402;SDS011;696;48.546;9.896;2024-01-27T00:05:52;0.40;;;0.40;;
1402;SDS011;696;48.546;9.896;2024-01-27T00:08:17;0.40;;;0.40;;
1402;SDS011;696;48.546;9.896;2024-01-27T00:10:43;0.43;;;0.43;;
1402;SDS011;696;48.546;9.896;2024-01-27T00:13:10;0.40;;;0.40;;
1402;SDS011;696;48.546;9.896;2024-01-27T00:15:36;0.40;;;0.40;;
1402;SDS011;696;48.546;9.896;2024-01-27T00:18:01;0.40;;;0.40;;
1402;SDS011;696;48.546;9.896;2024-01-27T00:20:27;0.40;;;0.40;;
1402;SDS011;696;48.546;9.896;2024-01-27T00:22:52;0.40;;;0.40;;
1402;SDS011;696;48.546;9.896;2024-01-27T00:25:18;0.40;;;0.40;;
1402;SDS011;696;48.546;9.896;2024-01-27T00:27:43;0.40;;;0.40;;
1402;SDS011;696;48.546;9.896;2024-01-27T00:30:08;0.30;;;0.30;;
1402;SDS011;696;48.546;9.896;2024-01-27T00:32:36;0.40;;;0.40;;
1402;SDS011;696;48.546;9.896;2024-01-27T00:35:02;0.50;;;0.50;;
1402;SDS011;696;48.546;9.896;2024-01-27T00:37:28;0.40;;;0.40;;
1402;SDS011;696;48.546;9.896;2024-01-27T00:39:53;0.47;;;0.47;;
1402;SDS011;696;48.546;9.896;2024-01-27T00:42:19;0.35;;;0.35;;
1402;SDS011;696;48.546;9.896;2024-01-27T00:44:48;0.40;;;0.40;;
1402;SDS011;696;48.546;9.896;2024-01-27T00:47:15;0.40;;;0.40;;
1402;SDS011;696;48.546;9.896;2024-01-27T00:49:40;0.35;;;0.35;;
1402;SDS011;696;48.546;9.896;2024-01-27T00:52:05;0.40;;;0.40;;
1402;SDS011;696;48.546;9.896;2024-01-27T00:54:31;0.45;;;0.45;;
1402;SDS011;696;48.546;9.896;2024-01-27T00:56:56;0.45;;;0.45;;
1402;SDS011;696;48.546;9.896;2024-01-27T00:59:21;0.32;;;0.32;;
1402;SDS011;696;48.546;9.896;2024-01-27T01:01:47;0.40;;;0.40;;
1402;SDS011;696;48.546;9.896;2024-01-27T01:04:12;0.40;;;0.40;;
1402;SDS011;696;48.546;9.896;2024-01-27T01:06:38;0.40;;;0.40;;
1402;SDS011;696;48.546;9.896;2024-01-27T01:09:05;0.45;;;0.45;;
1402;SDS011;696;48.546;9.896;2024-01-27T01:11:30;0.30;;;0.30;;
1402;SDS011;696;48.546;9.896;2024-01-27T01:13:55;0.30;;;0.30;;
1402;SDS011;696;48.546;9.896;2024-01-27T01:16:21;0.47;;;0.47;;
1402;SDS011;696;48.546;9.896;2024-01-27T01:18:46;0.38;;;0.38;;
1402;SDS011;696;48.546;9.896;2024-01-27T01:21:12;0.50;;;0.50;;
1402;SDS011;696;48.546;9.896;2024-01-27T01:23:37;0.40;;;0.40;;
1402;SDS011;696;48.546;9.896;2024-01-27T01:26:02;0.38;;;0.38;;
1402;SDS011;696;48.546;9.896;2024-01-27T01:28:28;0.50;;;0.50;;
1402;SDS011;696;48.546;9.896;2024-01-27T01:30:53;0.45;;;0.45;;
1402;SDS011;696;48.546;9.896;2024-01-27T01:33:19;0.50;;;0.50;;
1402;SDS011;696;48.546;9.896;2024-01-27T01:35:44;0.45;;;0.45;;
1402;SDS011;696;48.546;9.896;2024-01-27T01:38:10;0.40;;;0.40;;
1402;SDS011;696;48.546;9.896;2024-01-27T01:40:35;0.50;;;0.50;;
1402;SDS011;696;48.546;9.896;2024-01-27T01:43:01;0.40;;;0.40;;
1402;SDS011;696;48.546;9.896;2024-01-27T01:45:28;0.40;;;0.40;;
1402;SDS011;696;48.546;9.896;2024-01-27T01:47:53;0.52;;;0.52;;
1402;SDS011;696;48.546;9.896;2024-01-27T01:50:19;0.50;;;0.50;;
1402;SDS011;696;48.546;9.896;2024-01-27T01:52:45;0.60;;;0.60;;
1402;SDS011;696;48.546;9.896;2024-01-27T01:55:12;0.50;;;0.50;;
1402;SDS011;696;48.546;9.896;2024-01-27T01:57:38;0.40;;;0.40;;
1402;SDS011;696;48.546;9.896;2024-01-27T02:00:03;0.40;;;0.40;;
1402;SDS011;696;48.546;9.896;2024-01-27T02:02:29;0.40;;;0.40;;
1402;SDS011;696;48.546;9.896;2024-01-27T02:04:55;0.43;;;0.43;;
1402;SDS011;696;48.546;9.896;2024-01-27T02:07:20;0.40;;;0.40;;
1402;SDS011;696;48.546;9.896;2024-01-27T02:09:45;0.40;;;0.40;;
1402;SDS011;696;48.546;9.896;2024-01-27T02:12:11;0.45;;;0.45;;
1402;SDS011;696;48.546;9.896;2024-01-27T02:14:36;0.40;;;0.40;;
1402;SDS011;696;48.546;9.896;2024-01-27T02:17:01;0.45;;;0.45;;
1402;SDS011;696;48.546;9.896;2024-01-27T02:19:27;0.47;;;0.47;;
1402;SDS011;696;48.546;9.896;2024-01-27T02:21:52;0.40;;;0.40;;
1402;SDS011;696;48.546;9.896;2024-01-27T02:24:17;0.32;;;0.32;;
1402;SDS011;696;48.546;9.896;2024-01-27T02:26:43;0.40;;;0.40;;
1402;SDS011;696;48.546;9.896;2024-01-27T02:29:08;0.50;;;0.50;;
1402;SDS011;696;48.546;9.896;2024-01-27T02:31:33;0.40;;;0.40;;
1402;SDS011;696;48.546;9.896;2024-01-27T02:33:59;0.50;;;0.50;;
1402;SDS011;696;48.546;9.896;2024-01-27T02:36:24;0.50;;;0.50;;
1402;SDS011;696;48.546;9.896;2024-01-27T02:38:50;0.50;;;0.50;;
1402;SDS011;696;48.546;9.896;2024-01-27T02:41:15;0.50;;;0.50;;
1402;SDS011;696;48.546;9.896;2024-01-27T02:43:40;0.50;;;0.50;;
1402;SDS011;696;48.546;9.896;2024-01-27T02:46:11;0.40;;;0.40;;
1402;SDS011;696;48.546;9.896;2024-01-27T02:48:39;0.40;;;0.40;;
1402;SDS011;696;48.546;9.896;2024-01-27T02:51:05;0.47;;;0.47;;
1402;SDS011;696;48.546;9.896;2024-01-27T02:53:30;0.40;;;0.40;;
1402;SDS011;696;48.546;9.896;2024-01-27T02:55:56;0.40;;;0.40;;
1402;SDS011;696;48.546;9.896;2024-01-27T02:58:21;0.50;;;0.50;;
1402;SDS011;696;48.546;9.896;2024-01-27T03:00:47;0.40;;;0.40;;
1402;SDS011;696;48.546;9.896;2024-01-27T03:03:12;0.50;;;0.50;;
1402;SDS011;696;48.546;9.896;2024-01-27T03:05:38;0.50;;;0.50;;
1402;SDS011;696;48.546;9.896;2024-01-27T03:08:03;0.43;;;0.43;;
1402;SDS011;696;48.546;9.896;2024-01-27T03:10:29;0.55;;;0.55;;
1402;SDS011;696;48.546;9.896;2024-01-27T03:12:56;0.50;;;0.50;;
1402;SDS011;696;48.546;9.896;2024-01-27T03:15:21;0.52;;;0.52;;
1402;SDS011;696;48.546;9.896;2024-01-27T03:17:46;0.40;;;0.40;;
1402;SDS011;696;48.546;9.896;2024-01-27T03:20:12;0.40;;;0.40;;
1402;SDS011;696;48.546;9.896;2024-01-27T03:22:37;0.32;;;0.32;;
1402;SDS011;696;48.546;9.896;2024-01-27T03:25:04;0.50;;;0.50;;
1402;SDS011;696;48.546;9.896;2024-01-27T03:27:30;0.50;;;0.50;;
1402;SDS011;696;48.546;9.896;2024-01-27T03:29:58;0.52;;;0.52;;
1402;SDS011;696;48.546;9.896;2024-01-27T03:32:24;0.40;;;0.40;;
1402;SDS011;696;48.546;9.896;2024-01-27T03:34:50;0.47;;;0.47;;
1402;SDS011;696;48.546;9.896;2024-01-27T03:37:15;0.40;;;0.40;;
1402;SDS011;696;48.546;9.896;2024-01-27T03:39:41;0.40;;;0.40;;
1402;SDS011;696;48.546;9.896;2024-01-27T03:42:07;0.50;;;0.50;;
1402;SDS011;696;48.546;9.896;2024-01-27T03:44:33;0.50;;;0.50;;
1402;SDS011;696;48.546;9.896;2024-01-27T03:46:58;0.40;;;0.40;;
1402;SDS011;696;48.546;9.896;2024-01-27T03:49:23;0.40;;;0.40;;
1402;SDS011;696;48.546;9.896;2024-01-27T03:51:49;0.60;;;0.60;;
1402;SDS011;696;48.546;9.896;2024-01-27T03:54:14;0.40;;;0.40;;
1402;SDS011;696;48.546;9.896;2024-01-27T03:56:41;0.50;;;0.50;;
1402;SDS011;696;48.546;9.896;2024-01-27T03:59:06;0.50;;;0.50;;
1402;SDS011;696;48.546;9.896;2024-01-27T04:01:34;0.40;;;0.40;;
1402;SDS011;696;48.546;9.896;2024-01-27T04:03:59;0.30;;;0.30;;
1402;SDS011;696;48.546;9.896;2024-01-27T04:06:25;0.50;;;0.50;;
1402;SDS011;696;48.546;9.896;2024-01-27T04:08:50;0.50;;;0.50;;
1402;SDS011;696;48.546;9.896;2024-01-27T04:11:19;0.50;;;0.50;;
1402;SDS011;696;48.546;9.896;2024-01-27T04:13:49;0.40;;;0.40;;
1402;SDS011;696;48.546;9.896;2024-01-27T04:16:18;0.50;;;0.50;;
1402;SDS011;696;48.546;9.896;2024-01-27T04:18:43;0.50;;;0.50;;
1402;SDS011;696;48.546;9.896;2024-01-27T04:21:08;0.40;;;0.40;;
1402;SDS011;696;48.546;9.896;2024-01-27T04:23:34;0.40;;;0.40;;
1402;SDS011;696;48.546;9.896;2024-01-27T04:25:59;0.50;;;0.50;;
1402;SDS011;696;48.546;9.896;2024-01-27T04:28:25;0.50;;;0.50;;
1402;SDS011;696;48.546;9.896;2024-01-27T04:30:50;0.40;;;0.40;;
1402;SDS011;696;48.546;9.896;2024-01-27T04:33:15;0.40;;;0.40;;
1402;SDS011;696;48.546;9.896;2024-01-27T04:35:41;0.43;;;0.43;;
1402;SDS011;696;48.546;9.896;2024-01-27T04:38:08;0.47;;;0.47;;
1402;SDS011;696;48.546;9.896;2024-01-27T04:40:33;0.40;;;0.40;;
1402;SDS011;696;48.546;9.896;2024-01-27T04:43:00;0.40;;;0.40;;
1402;SDS011;696;48.546;9.896;2024-01-27T04:45:26;0.47;;;0.47;;
1402;SDS011;696;48.546;9.896;2024-01-27T04:47:52;0.50;;;0.50;;
1402;SDS011;696;48.546;9.896;2024-01-27T04:50:18;0.40;;;0.40;;
1402;SDS011;696;48.546;9.896;2024-01-27T04:52:44;0.40;;;0.40;;
1402;SDS011;696;48.546;9.896;2024-01-27T04:55:09;0.50;;;0.50;;
1402;SDS011;696;48.546;9.896;2024-01-27T04:57:35;0.40;;;0.40;;
1402;SDS011;696;48.546;9.896;2024-01-27T05:00:00;0.55;;;0.55;;
1402;SDS011;696;48.546;9.896;2024-01-27T05:02:25;0.50;;;0.50;;
1402;SDS011;696;48.546;9.896;2024-01-27T05:04:51;0.57;;;0.57;;
1402;SDS011;696;48.546;9.896;2024-01-27T05:07:17;0.50;;;0.50;;
1402;SDS011;696;48.546;9.896;2024-01-27T05:09:42;0.52;;;0.52;;
1402;SDS011;696;48.546;9.896;2024-01-27T05:12:08;0.40;;;0.40;;
1402;SDS011;696;48.546;9.896;2024-01-27T05:14:33;0.40;;;0.40;;
1402;SDS011;696;48.546;9.896;2024-01-27T05:16:59;0.40;;;0.40;;
1402;SDS011;696;48.546;9.896;2024-01-27T05:19:24;0.40;;;0.40;;
1402;SDS011;696;48.546;9.896;2024-01-27T05:21:49;0.30;;;0.30;;
1402;SDS011;696;48.546;9.896;2024-01-27T05:24:15;0.52;;;0.52;;
1402;SDS011;696;48.546;9.896;2024-01-27T05:26:40;0.40;;;0.40;;
1402;SDS011;696;48.546;9.896;2024-01-27T05:29:06;0.43;;;0.43;;
1402;SDS011;696;48.546;9.896;2024-01-27T05:31:31;0.43;;;0.43;;
1402;SDS011;696;48.546;9.896;2024-01-27T05:33:57;0.40;;;0.40;;
1402;SDS011;696;48.546;9.896;2024-01-27T05:36:22;0.50;;;0.50;;
1402;SDS011;696;48.546;9.896;2024-01-27T05:38:47;0.50;;;0.50;;
1402;SDS011;696;48.546;9.896;2024-01-27T05:41:13;0.60;;;0.60;;
1402;SDS011;696;48.546;9.896;2024-01-27T05:43:39;0.50;;;0.50;;
1402;SDS011;696;48.546;9.896;2024-01-27T05:46:04;0.50;;;0.50;;
1402;SDS011;696;48.546;9.896;2024-01-27T05:48:30;0.47;;;0.47;;
1402;SDS011;696;48.546;9.896;2024-01-27T05:50:56;0.50;;;0.50;;
1402;SDS011;696;48.546;9.896;2024-01-27T05:53:25;0.50;;;0.50;;
1402;SDS011;696;48.546;9.896;2024-01-27T05:55:51;0.50;;;0.50;;
1402;SDS011;696;48.546;9.896;2024-01-27T05:58:17;0.50;;;0.50;;
1402;SDS011;696;48.546;9.896;2024-01-27T06:00:43;0.40;;;0.40;;
1402;SDS011;696;48.546;9.896;2024-01-27T06:03:09;0.40;;;0.40;;
1402;SDS011;696;48.546;9.896;2024-01-27T06:05:34;0.52;;;0.52;;
1402;SDS011;696;48.546;9.896;2024-01-27T06:08:00;0.50;;;0.50;;
1402;SDS011;696;48.546;9.896;2024-01-27T06:10:25;0.60;;;0.60;;
1402;SDS011;696;48.546;9.896;2024-01-27T06:12:50;0.50;;;0.50;;
1402;SDS011;696;48.546;9.896;2024-01-27T06:15:16;0.50;;;0.50;;
1402;SDS011;696;48.546;9.896;2024-01-27T06:17:41;0.43;;;0.43;;
1402;SDS011;696;48.546;9.896;2024-01-27T06:20:07;0.40;;;0.40;;
1402;SDS011;696;48.546;9.896;2024-01-27T06:22:32;0.50;;;0.50;;
1402;SDS011;696;48.546;9.896;2024-01-27T06:24:58;0.40;;;0.40;;
1402;SDS011;696;48.546;9.896;2024-01-27T06:27:23;0.50;;;0.50;;
1402;SDS011;696;48.546;9.896;2024-01-27T06:29:49;0.47;;;0.47;;
1402;SDS011;696;48.546;9.896;2024-01-27T06:32:14;0.50;;;0.50;;
1402;SDS011;696;48.546;9.896;2024-01-27T06:34:40;0.50;;;0.50;;
1402;SDS011;696;48.546;9.896;2024-01-27T06:37:06;0.40;;;0.40;;
1402;SDS011;696;48.546;9.896;2024-01-27T06:39:31;0.50;;;0.50;;
1402;SDS011;696;48.546;9.896;2024-01-27T06:41:56;0.40;;;0.40;;
1402;SDS011;696;48.546;9.896;2024-01-27T06:44:22;0.52;;;0.52;;
1402;SDS011;696;48.546;9.896;2024-01-27T06:46:47;0.52;;;0.52;;
1402;SDS011;696;48.546;9.896;2024-01-27T06:49:15;0.50;;;0.50;;
1402;SDS011;696;48.546;9.896;2024-01-27T06:51:41;0.50;;;0.50;;
1402;SDS011;696;48.546;9.896;2024-01-27T06:54:07;0.40;;;0.40;;
1402;SDS011;696;48.546;9.896;2024-01-27T06:56:32;0.50;;;0.50;;
1402;SDS011;696;48.546;9.896;2024-01-27T06:58:57;0.50;;;0.50;;
1402;SDS011;696;48.546;9.896;2024-01-27T07:01:23;0.40;;;0.40;;
1402;SDS011;696;48.546;9.896;2024-01-27T07:03:49;0.50;;;0.50;;
1402;SDS011;696;48.546;9.896;2024-01-27T07:06:14;0.60;;;0.60;;
1402;SDS011;696;48.546;9.896;2024-01-27T07:08:40;0.50;;;0.50;;
1402;SDS011;696;48.546;9.896;2024-01-27T07:11:05;0.50;;;0.50;;
1402;SDS011;696;48.546;9.896;2024-01-27T07:13:30;0.40;;;0.40;;
1402;SDS011;696;48.546;9.896;2024-01-27T07:15:56;0.57;;;0.57;;
1402;SDS011;696;48.546;9.896;2024-01-27T07:18:22;0.50;;;0.50;;
1402;SDS011;696;48.546;9.896;2024-01-27T07:20:49;0.50;;;0.50;;
1402;SDS011;696;48.546;9.896;2024-01-27T07:23:14;0.40;;;0.40;;
1402;SDS011;696;48.546;9.896;2024-01-27T07:25:39;0.50;;;0.50;;
1402;SDS011;696;48.546;9.896;2024-01-27T07:28:05;0.60;;;0.60;;
1402;SDS011;696;48.546;9.896;2024-01-27T07:30:30;0.55;;;0.55;;
1402;SDS011;696;48.546;9.896;2024-01-27T07:32:56;0.50;;;0.50;;
1402;SDS011;696;48.546;9.896;2024-01-27T07:35:21;0.52;;;0.52;;
1402;SDS011;696;48.546;9.896;2024-01-27T07:37:47;0.60;;;0.60;;
1402;SDS011;696;48.546;9.896;2024-01-27T07:40:12;0.50;;;0.50;;
1402;SDS011;696;48.546;9.896;2024-01-27T07:42:37;0.60;;;0.60;;
1402;SDS011;696;48.546;9.896;2024-01-27T07:45:03;0.50;;;0.50;;
1402;SDS011;696;48.546;9.896;2024-01-27T07:47:29;0.50;;;0.50;;
1402;SDS011;696;48.546;9.896;2024-01-27T07:49:54;0.43;;;0.43;;
1402;SDS011;696;48.546;9.896;2024-01-27T07:52:19;0.50;;;0.50;;
1402;SDS011;696;48.546;9.896;2024-01-27T07:54:45;0.40;;;0.40;;
1402;SDS011;696;48.546;9.896;2024-01-27T07:57:10;0.50;;;0.50;;
1402;SDS011;696;48.546;9.896;2024-01-27T07:59:37;0.40;;;0.40;;
1402;SDS011;696;48.546;9.896;2024-01-27T08:02:02;0.50;;;0.50;;
1402;SDS011;696;48.546;9.896;2024-01-27T08:04:28;0.40;;;0.40;;
1402;SDS011;696;48.546;9.896;2024-01-27T08:06:54;0.50;;;0.50;;
1402;SDS011;696;48.546;9.896;2024-01-27T08:09:19;0.43;;;0.43;;
1402;SDS011;696;48.546;9.896;2024-01-27T08:11:49;0.43;;;0.43;;
1402;SDS011;696;48.546;9.896;2024-01-27T08:14:17;0.47;;;0.47;;
1402;SDS011;696;48.546;9.896;2024-01-27T08:16:43;0.60;;;0.60;;
1402;SDS011;696;48.546;9.896;2024-01-27T08:19:08;0.40;;;0.40;;
1402;SDS011;696;48.546;9.896;2024-01-27T08:21:33;0.40;;;0.40;;
1402;SDS011;696;48.546;9.896;2024-01-27T08:23:59;0.40;;;0.40;;
1402;SDS011;696;48.546;9.896;2024-01-27T08:26:24;0.40;;;0.40;;
1402;SDS011;696;48.546;9.896;2024-01-27T08:28:50;0.40;;;0.40;;
1402;SDS011;696;48.546;9.896;2024-01-27T08:31:15;0.47;;;0.47;;
1402;SDS011;696;48.546;9.896;2024-01-27T08:33:40;0.47;;;0.47;;
1402;SDS011;696;48.546;9.896;2024-01-27T08:36:06;0.40;;;0.40;;
1402;SDS011;696;48.546;9.896;2024-01-27T08:38:32;0.45;;;0.45;;
1402;SDS011;696;48.546;9.896;2024-01-27T08:40:57;0.40;;;0.40;;
1402;SDS011;696;48.546;9.896;2024-01-27T08:43:22;0.40;;;0.40;;
1402;SDS011;696;48.546;9.896;2024-01-27T08:45:48;0.40;;;0.40;;
1402;SDS011;696;48.546;9.896;2024-01-27T08:48:13;0.40;;;0.40;;
1402;SDS011;696;48.546;9.896;2024-01-27T08:50:40;0.50;;;0.50;;
1402;SDS011;696;48.546;9.896;2024-01-27T08:53:05;0.40;;;0.40;;
1402;SDS011;696;48.546;9.896;2024-01-27T08:55:30;0.30;;;0.30;;
1402;SDS011;696;48.546;9.896;2024-01-27T08:57:56;0.40;;;0.40;;
1402;SDS011;696;48.546;9.896;2024-01-27T09:00:21;0.38;;;0.38;;
1402;SDS011;696;48.546;9.896;2024-01-27T09:02:47;0.47;;;0.47;;
1402;SDS011;696;48.546;9.896;2024-01-27T09:05:12;0.40;;;0.40;;
1402;SDS011;696;48.546;9.896;2024-01-27T09:07:38;0.30;;;0.30;;
1402;SDS011;696;48.546;9.896;2024-01-27T09:10:06;0.40;;;0.40;;
1402;SDS011;696;48.546;9.896;2024-01-27T09:12:32;0.40;;;0.40;;
1402;SDS011;696;48.546;9.896;2024-01-27T09:14:59;0.35;;;0.35;;
1402;SDS011;696;48.546;9.896;2024-01-27T09:17:31;0.40;;;0.40;;
1402;SDS011;696;48.546;9.896;2024-01-27T09:19:56;0.40;;;0.40;;
1402;SDS011;696;48.546;9.896;2024-01-27T09:22:21;0.40;;;0.40;;
1402;SDS011;696;48.546;9.896;2024-01-27T09:24:47;0.38;;;0.38;;
1402;SDS011;696;48.546;9.896;2024-01-27T09:27:12;0.38;;;0.38;;
1402;SDS011;696;48.546;9.896;2024-01-27T09:29:38;0.40;;;0.40;;
1402;SDS011;696;48.546;9.896;2024-01-27T09:32:04;0.30;;;0.30;;
1402;SDS011;696;48.546;9.896;2024-01-27T09:34:29;0.30;;;0.30;;
1402;SDS011;696;48.546;9.896;2024-01-27T09:36:55;0.30;;;0.30;;
1402;SDS011;696;48.546;9.896;2024-01-27T09:39:20;0.40;;;0.40;;
1402;SDS011;696;48.546;9.896;2024-01-27T09:41:45;0.30;;;0.30;;
1402;SDS011;696;48.546;9.896;2024-01-27T09:44:13;0.40;;;0.40;;
1402;SDS011;696;48.546;9.896;2024-01-27T09:46:41;0.40;;;0.40;;
1402;SDS011;696;48.546;9.896;2024-01-27T09:49:06;0.40;;;0.40;;
1402;SDS011;696;48.546;9.896;2024-01-27T09:51:36;0.30;;;0.30;;
1402;SDS011;696;48.546;9.896;2024-01-27T09:54:02;0.40;;;0.40;;
1402;SDS011;696;48.546;9.896;2024-01-27T09:56:27;0.40;;;0.40;;
1402;SDS011;696;48.546;9.896;2024-01-27T09:58:53;0.40;;;0.40;;
1402;SDS011;696;48.546;9.896;2024-01-27T10:01:20;0.30;;;0.30;;
1402;SDS011;696;48.546;9.896;2024-01-27T10:03:46;0.30;;;0.30;;
1402;SDS011;696;48.546;9.896;2024-01-27T10:06:12;0.30;;;0.30;;
1402;SDS011;696;48.546;9.896;2024-01-27T10:08:39;0.30;;;0.30;;
1402;SDS011;696;48.546;9.896;2024-01-27T10:11:08;0.28;;;0.28;;
1402;SDS011;696;48.546;9.896;2024-01-27T10:13:35;0.40;;;0.40;;
1402;SDS011;696;48.546;9.896;2024-01-27T10:16:04;0.30;;;0.30;;
1402;SDS011;696;48.546;9.896;2024-01-27T10:18:31;0.40;;;0.40;;
1402;SDS011;696;48.546;9.896;2024-01-27T10:20:57;0.30;;;0.30;;
1402;SDS011;696;48.546;9.896;2024-01-27T10:23:23;0.28;;;0.28;;
1402;SDS011;696;48.546;9.896;2024-01-27T10:25:48;0.30;;;0.30;;
1402;SDS011;696;48.546;9.896;2024-01-27T10:28:14;0.30;;;0.30;;
1402;SDS011;696;48.546;9.896;2024-01-27T10:30:39;0.30;;;0.30;;
1402;SDS011;696;48.546;9.896;2024-01-27T10:33:06;0.30;;;0.30;;
1402;SDS011;696;48.546;9.896;2024-01-27T10:35:33;0.30;;;0.30;;
1402;SDS011;696;48.546;9.896;2024-01-27T10:37:59;0.40;;;0.40;;
1402;SDS011;696;48.546;9.896;2024-01-27T10:40:24;0.20;;;0.20;;
1402;SDS011;696;48.546;9.896;2024-01-27T10:43:00;0.30;;;0.30;;
1402;SDS011;696;48.546;9.896;2024-01-27T10:45:28;0.30;;;0.30;;
1402;SDS011;696;48.546;9.896;2024-01-27T10:47:55;0.30;;;0.30;;
1402;SDS011;696;48.546;9.896;2024-01-27T10:50:21;0.30;;;0.30;;
1402;SDS011;696;48.546;9.896;2024-01-27T10:52:48;0.30;;;0.30;;
1402;SDS011;696;48.546;9.896;2024-01-27T10:55:15;0.30;;;0.30;;
1402;SDS011;696;48.546;9.896;2024-01-27T10:57:41;0.30;;;0.30;;
1402;SDS011;696;48.546;9.896;2024-01-27T11:00:07;0.30;;;0.30;;
1402;SDS011;696;48.546;9.896;2024-01-27T11:02:34;0.30;;;0.30;;
1402;SDS011;696;48.546;9.896;2024-01-27T11:05:01;0.30;;;0.30;;
1402;SDS011;696;48.546;9.896;2024-01-27T11:07:32;0.30;;;0.30;;
1402;SDS011;696;48.546;9.896;2024-01-27T11:09:59;0.30;;;0.30;;
1402;SDS011;696;48.546;9.896;2024-01-27T11:12:25;0.30;;;0.30;;
1402;SDS011;696;48.546;9.896;2024-01-27T11:14:50;0.30;;;0.30;;
1402;SDS011;696;48.546;9.896;2024-01-27T11:17:16;0.30;;;0.30;;
1402;SDS011;696;48.546;9.896;2024-01-27T11:19:42;0.30;;;0.30;;
1402;SDS011;696;48.546;9.896;2024-01-27T11:22:07;0.20;;;0.20;;
1402;SDS011;696;48.546;9.896;2024-01-27T11:24:33;0.22;;;0.22;;
1402;SDS011;696;48.546;9.896;2024-01-27T11:27:05;0.28;;;0.28;;
1402;SDS011;696;48.546;9.896;2024-01-27T11:29:31;0.30;;;0.30;;
1402;SDS011;696;48.546;9.896;2024-01-27T11:32:00;0.28;;;0.28;;
1402;SDS011;696;48.546;9.896;2024-01-27T11:34:27;0.30;;;0.30;;
1402;SDS011;696;48.546;9.896;2024-01-27T11:36:52;0.20;;;0.20;;
1402;SDS011;696;48.546;9.896;2024-01-27T11:39:27;0.30;;;0.30;;
1402;SDS011;696;48.546;9.896;2024-01-27T11:42:04;0.30;;;0.30;;
1402;SDS011;696;48.546;9.896;2024-01-27T11:44:30;0.30;;;0.30;;
1402;SDS011;696;48.546;9.896;2024-01-27T11:46:56;0.30;;;0.30;;
1402;SDS011;696;48.546;9.896;2024-01-27T11:49:21;0.20;;;0.20;;
1402;SDS011;696;48.546;9.896;2024-01-27T11:51:47;0.30;;;0.30;;
1402;SDS011;696;48.546;9.896;2024-01-27T11:54:13;0.22;;;0.22;;
1402;SDS011;696;48.546;9.896;2024-01-27T11:56:38;0.30;;;0.30;;
1402;SDS011;696;48.546;9.896;2024-01-27T11:59:04;0.30;;;0.30;;
1402;SDS011;696;48.546;9.896;2024-01-27T12:01:29;0.30;;;0.30;;
1402;SDS011;696;48.546;9.896;2024-01-27T12:03:54;0.30;;;0.30;;
1402;SDS011;696;48.546;9.896;2024-01-27T12:06:20;0.30;;;0.30;;
1402;SDS011;696;48.546;9.896;2024-01-27T12:08:45;0.30;;;0.30;;
1402;SDS011;696;48.546;9.896;2024-01-27T12:11:14;0.20;;;0.20;;
1402;SDS011;696;48.546;9.896;2024-01-27T12:13:39;0.30;;;0.30;;
1402;SDS011;696;48.546;9.896;2024-01-27T12:16:05;0.20;;;0.20;;
1402;SDS011;696;48.546;9.896;2024-01-27T12:18:31;0.20;;;0.20;;
1402;SDS011;696;48.546;9.896;2024-01-27T12:20:57;0.20;;;0.20;;
1402;SDS011;696;48.546;9.896;2024-01-27T12:23:22;0.30;;;0.30;;
1402;SDS011;696;48.546;9.896;2024-01-27T12:25:54;0.20;;;0.20;;
1402;SDS011;696;48.546;9.896;2024-01-27T12:28:21;0.20;;;0.20;;
1402;SDS011;696;48.546;9.896;2024-01-27T12:30:47;0.20;;;0.20;;
1402;SDS011;696;48.546;9.896;2024-01-27T12:33:12;0.20;;;0.20;;
1402;SDS011;696;48.546;9.896;2024-01-27T12:35:38;0.20;;;0.20;;
1402;SDS011;696;48.546;9.896;2024-01-27T12:38:05;0.20;;;0.20;;
1402;SDS011;696;48.546;9.896;2024-01-27T12:40:31;0.15;;;0.15;;
1402;SDS011;696;48.546;9.896;2024-01-27T12:42:56;0.20;;;0.20;;
1402;SDS011;696;48.546;9.896;2024-01-27T12:45:22;0.22;;;0.22;;
1402;SDS011;696;48.546;9.896;2024-01-27T12:47:47;0.20;;;0.20;;
1402;SDS011;696;48.546;9.896;2024-01-27T12:50:13;0.20;;;0.20;;
1402;SDS011;696;48.546;9.896;2024-01-27T12:52:38;0.20;;;0.20;;
1402;SDS011;696;48.546;9.896;2024-01-27T12:55:04;0.20;;;0.20;;
1402;SDS011;696;48.546;9.896;2024-01-27T12:57:30;0.30;;;0.30;;
1402;SDS011;696;48.546;9.896;2024-01-27T12:59:55;0.20;;;0.20;;
1402;SDS011;696;48.546;9.896;2024-01-27T13:02:21;0.20;;;0.20;;
1402;SDS011;696;48.546;9.896;2024-01-27T13:04:46;0.20;;;0.20;;
1402;SDS011;696;48.546;9.896;2024-01-27T13:07:12;0.20;;;0.20;;
1402;SDS011;696;48.546;9.896;2024-01-27T13:09:39;0.20;;;0.20;;
1402;SDS011;696;48.546;9.896;2024-01-27T13:12:04;0.20;;;0.20;;
1402;SDS011;696;48.546;9.896;2024-01-27T13:14:30;0.20;;;0.20;;
1402;SDS011;696;48.546;9.896;2024-01-27T13:16:55;0.20;;;0.20;;
1402;SDS011;696;48.546;9.896;2024-01-27T13:19:24;0.30;;;0.30;;
1402;SDS011;696;48.546;9.896;2024-01-27T13:21:49;0.20;;;0.20;;
1402;SDS011;696;48.546;9.896;2024-01-27T13:24:15;0.20;;;0.20;;
1402;SDS011;696;48.546;9.896;2024-01-27T13:26:40;0.20;;;0.20;;
1402;SDS011;696;48.546;9.896;2024-01-27T13:29:05;0.22;;;0.22;;
1402;SDS011;696;48.546;9.896;2024-01-27T13:31:31;0.20;;;0.20;;
1402;SDS011;696;48.546;9.896;2024-01-27T13:33:57;0.30;;;0.30;;
1402;SDS011;696;48.546;9.896;2024-01-27T13:36:23;0.20;;;0.20;;
1402;SDS011;696;48.546;9.896;2024-01-27T13:38:49;0.20;;;0.20;;
1402;SDS011;696;48.546;9.896;2024-01-27T13:41:14;0.30;;;0.30;;
1402;SDS011;696;48.546;9.896;2024-01-27T13:43:40;0.20;;;0.20;;
1402;SDS011;696;48.546;9.896;2024-01-27T13:46:06;0.20;;;0.20;;
1402;SDS011;696;48.546;9.896;2024-01-27T13:48:31;0.20;;;0.20;;
1402;SDS011;696;48.546;9.896;2024-01-27T13:50:57;0.28;;;0.28;;
1402;SDS011;696;48.546;9.896;2024-01-27T13:53:22;0.25;;;0.25;;
1402;SDS011;696;48.546;9.896;2024-01-27T13:55:48;0.20;;;0.20;;
1402;SDS011;696;48.546;9.896;2024-01-27T13:58:13;0.30;;;0.30;;
1402;SDS011;696;48.546;9.896;2024-01-27T14:00:39;0.20;;;0.20;;
1402;SDS011;696;48.546;9.896;2024-01-27T14:03:04;0.30;;;0.30;;
1402;SDS011;696;48.546;9.896;2024-01-27T14:05:30;0.20;;;0.20;;
1402;SDS011;696;48.546;9.896;2024-01-27T14:07:55;0.20;;;0.20;;
1402;SDS011;696;48.546;9.896;2024-01-27T14:10:21;0.20;;;0.20;;
1402;SDS011;696;48.546;9.896;2024-01-27T14:12:46;0.20;;;0.20;;
1402;SDS011;696;48.546;9.896;2024-01-27T14:15:11;0.10;;;0.10;;
1402;SDS011;696;48.546;9.896;2024-01-27T14:17:37;0.13;;;0.13;;
1402;SDS011;696;48.546;9.896;2024-01-27T14:20:02;0.10;;;0.10;;
1402;SDS011;696;48.546;9.896;2024-01-27T14:22:29;0.17;;;0.17;;
1402;SDS011;696;48.546;9.896;2024-01-27T14:24:54;0.10;;;0.10;;
1402;SDS011;696;48.546;9.896;2024-01-27T14:27:20;0.10;;;0.10;;
1402;SDS011;696;48.546;9.896;2024-01-27T14:29:51;0.10;;;0.10;;
1402;SDS011;696;48.546;9.896;2024-01-27T14:32:18;0.10;;;0.10;;
1402;SDS011;696;48.546;9.896;2024-01-27T14:34:43;0.10;;;0.10;;
1402;SDS011;696;48.546;9.896;2024-01-27T14:37:09;0.10;;;0.10;;
1402;SDS011;696;48.546;9.896;2024-01-27T14:39:34;0.20;;;0.20;;
1402;SDS011;696;48.546;9.896;2024-01-27T14:42:01;0.05;;;0.05;;
1402;SDS011;696;48.546;9.896;2024-01-27T14:44:29;0.10;;;0.10;;
1402;SDS011;696;48.546;9.896;2024-01-27T14:46:54;0.10;;;0.10;;
1402;SDS011;696;48.546;9.896;2024-01-27T14:49:20;0.10;;;0.10;;
1402;SDS011;696;48.546;9.896;2024-01-27T14:51:47;0.10;;;0.10;;
1402;SDS011;696;48.546;9.896;2024-01-27T14:54:12;0.10;;;0.10;;
1402;SDS011;696;48.546;9.896;2024-01-27T14:56:38;0.10;;;0.10;;
1402;SDS011;696;48.546;9.896;2024-01-27T14:59:03;0.20;;;0.20;;
1402;SDS011;696;48.546;9.896;2024-01-27T15:01:28;0.10;;;0.10;;
1402;SDS011;696;48.546;9.896;2024-01-27T15:03:54;0.20;;;0.20;;
1402;SDS011;696;48.546;9.896;2024-01-27T15:06:19;0.20;;;0.20;;
1402;SDS011;696;48.546;9.896;2024-01-27T15:08:45;0.20;;;0.20;;
1402;SDS011;696;48.546;9.896;2024-01-27T15:11:10;0.20;;;0.20;;
1402;SDS011;696;48.546;9.896;2024-01-27T15:13:36;0.20;;;0.20;;
1402;SDS011;696;48.546;9.896;2024-01-27T15:16:01;0.20;;;0.20;;
1402;SDS011;696;48.546;9.896;2024-01-27T15:18:27;0.30;;;0.30;;
1402;SDS011;696;48.546;9.896;2024-01-27T15:20:52;0.20;;;0.20;;